createdAt,value
2018-07-20T00:00:10.686Z,63.00
2018-07-20T00:02:39.101Z,62.90
2018-07-20T00:05:20.560Z,63.87
2018-07-20T00:07:49.041Z,63.72
2018-07-20T00:10:17.524Z,63.61
2018-07-20T00:12:46.011Z,64.85
2018-07-20T00:15:14.490Z,65.57
2018-07-20T00:17:42.933Z,65.72
2018-07-20T00:20:11.437Z,65.70
2018-07-20T00:22:39.924Z,65.10
2018-07-20T00:25:08.400Z,64.92
2018-07-20T00:27:36.846Z,65.38
2018-07-20T00:30:05.722Z,65.42
2018-07-20T00:32:34.237Z,65.47
2018-07-20T00:35:02.750Z,66.31
2018-07-20T00:37:31.243Z,66.19
2018-07-20T00:39:59.711Z,66.72
2018-07-20T00:42:28.193Z,66.06
2018-07-20T00:44:57.240Z,65.81
2018-07-20T00:47:25.799Z,66.14
2018-07-20T00:49:54.689Z,66.59
2018-07-20T00:52:23.297Z,66.15
2018-07-20T00:54:51.923Z,66.79
2018-07-20T00:57:20.761Z,66.75
2018-07-20T00:59:49.297Z,65.66
2018-07-20T01:02:17.773Z,64.73
2018-07-20T01:04:46.885Z,64.96
2018-07-20T01:07:15.370Z,64.91
2018-07-20T01:09:43.922Z,65.98
2018-07-20T01:12:12.403Z,67.37
2018-07-20T01:14:40.832Z,67.97
2018-07-20T01:17:09.440Z,68.64
2018-07-20T01:19:37.966Z,68.50
2018-07-20T01:22:06.433Z,68.49
2018-07-20T01:24:34.926Z,67.82
2018-07-20T01:27:03.426Z,68.07
2018-07-20T01:29:31.838Z,67.39
2018-07-20T01:32:00.381Z,67.30
2018-07-20T01:34:28.848Z,67.78
2018-07-20T01:36:57.345Z,67.91
2018-07-20T01:39:25.936Z,68.21
2018-07-20T01:41:54.520Z,68.52
2018-07-20T01:44:23.044Z,68.63
2018-07-20T01:46:51.555Z,68.09
2018-07-20T01:49:19.981Z,67.97
2018-07-20T01:51:56.312Z,67.85
2018-07-20T01:54:24.821Z,68.41
2018-07-20T01:56:53.536Z,68.71
2018-07-20T01:59:21.972Z,69.31
2018-07-20T02:01:50.413Z,69.59
2018-07-20T02:04:18.925Z,69.94
2018-07-20T02:06:47.769Z,69.42
2018-07-20T02:09:16.308Z,69.05
2018-07-20T02:11:44.788Z,69.58
2018-07-20T02:14:13.252Z,69.74
2018-07-20T02:16:41.766Z,69.68
2018-07-20T02:19:10.222Z,70.52
2018-07-20T02:21:38.744Z,70.16
2018-07-20T02:24:07.324Z,70.59
2018-07-20T02:26:35.743Z,71.02
2018-07-20T02:29:04.197Z,71.42
2018-07-20T02:31:32.757Z,70.88
2018-07-20T02:34:01.254Z,70.75
2018-07-20T02:36:29.686Z,70.71
2018-07-20T02:38:58.192Z,70.21
2018-07-20T02:41:26.680Z,71.35
2018-07-20T02:43:55.146Z,71.80
2018-07-20T02:46:36.244Z,72.20
2018-07-20T02:49:04.726Z,72.42
2018-07-20T02:51:33.160Z,72.86
2018-07-20T02:54:01.683Z,73.17
2018-07-20T02:56:30.346Z,72.11
2018-07-20T02:58:58.849Z,71.67
2018-07-20T03:01:27.325Z,72.04
2018-07-20T03:03:55.743Z,71.98
2018-07-20T03:06:24.187Z,71.26
2018-07-20T03:08:52.615Z,71.02
2018-07-20T03:11:21.050Z,71.18
2018-07-20T03:13:49.552Z,72.01
2018-07-20T03:16:25.173Z,72.38
2018-07-20T03:18:53.677Z,72.76
2018-07-20T03:21:22.135Z,73.52
2018-07-20T03:23:50.628Z,73.28
2018-07-20T03:26:19.166Z,73.70
2018-07-20T03:28:47.568Z,73.71
2018-07-20T03:31:16.070Z,74.48
2018-07-20T03:33:44.546Z,74.87
2018-07-20T03:36:13.045Z,73.58
2018-07-20T03:38:41.509Z,73.86
2018-07-20T03:41:10.005Z,73.91
2018-07-20T03:43:38.532Z,74.07
2018-07-20T03:46:07.080Z,74.02
2018-07-20T03:48:35.580Z,74.40
2018-07-20T03:51:04.130Z,74.86
2018-07-20T03:53:32.611Z,74.18
2018-07-20T03:56:01.250Z,73.87
2018-07-20T03:58:29.784Z,74.63
2018-07-20T04:00:58.260Z,74.63
2018-07-20T04:03:26.695Z,74.88
2018-07-20T04:05:55.266Z,75.81
2018-07-20T04:08:24.508Z,74.99
2018-07-20T04:10:53.007Z,75.02
2018-07-20T04:13:21.489Z,75.47
2018-07-20T04:15:49.983Z,74.44
2018-07-20T04:18:18.570Z,74.08
2018-07-20T04:20:47.052Z,73.75
2018-07-20T04:23:15.530Z,74.53
2018-07-20T04:25:44.002Z,74.93
2018-07-20T04:28:12.485Z,75.05
2018-07-20T04:30:41.021Z,74.94
2018-07-20T04:33:09.547Z,75.08
2018-07-20T04:35:38.017Z,74.76
2018-07-20T04:38:06.584Z,74.81
2018-07-20T04:40:35.107Z,74.90
2018-07-20T04:43:03.678Z,74.79
2018-07-20T04:45:32.314Z,74.79
2018-07-20T04:48:00.729Z,74.25
2018-07-20T04:50:29.237Z,74.90
2018-07-20T04:52:58.035Z,75.19
2018-07-20T04:55:26.601Z,75.28
2018-07-20T04:57:55.053Z,75.60
2018-07-20T05:00:23.552Z,75.36
2018-07-20T05:02:52.063Z,75.80
2018-07-20T05:05:20.557Z,75.75
2018-07-20T05:07:49.123Z,76.12
2018-07-20T05:10:17.613Z,76.12
2018-07-20T05:12:46.081Z,75.77
2018-07-20T05:15:14.560Z,75.88
2018-07-20T05:17:43.080Z,75.57
2018-07-20T05:20:11.676Z,75.20
2018-07-20T05:22:40.207Z,75.25
2018-07-20T05:25:08.748Z,75.56
2018-07-20T05:27:37.284Z,75.49
2018-07-20T05:30:06.176Z,75.33
2018-07-20T05:32:34.640Z,75.15
2018-07-20T05:35:03.257Z,75.11
2018-07-20T05:37:31.731Z,74.97
2018-07-20T05:40:00.193Z,74.87
2018-07-20T05:42:28.631Z,74.37
2018-07-20T05:44:57.096Z,74.20
2018-07-20T05:47:25.675Z,74.41
2018-07-20T05:49:54.223Z,73.83
2018-07-20T05:52:22.812Z,73.32
2018-07-20T05:54:51.290Z,73.38
2018-07-20T05:57:19.777Z,72.87
2018-07-20T05:59:48.263Z,73.07
2018-07-20T06:02:17.068Z,72.59
2018-07-20T06:04:45.504Z,71.69
2018-07-20T06:07:14.067Z,71.70
2018-07-20T06:09:42.588Z,71.46
2018-07-20T06:12:11.117Z,70.63
2018-07-20T06:14:39.657Z,70.38
2018-07-20T06:17:08.150Z,70.24
2018-07-20T06:19:36.642Z,70.05
2018-07-20T06:22:22.111Z,69.65
2018-07-20T06:24:50.553Z,69.50
2018-07-20T06:27:19.000Z,69.51
2018-07-20T06:29:47.600Z,68.78
2018-07-20T06:32:16.142Z,68.83
2018-07-20T06:34:44.619Z,68.44
2018-07-20T06:37:13.145Z,68.51
2018-07-20T06:39:41.575Z,67.87
2018-07-20T06:42:10.109Z,68.25
2018-07-20T06:44:38.655Z,67.56
2018-07-20T06:47:07.478Z,67.79
2018-07-20T06:49:36.010Z,67.42
2018-07-20T06:52:04.478Z,67.00
2018-07-20T06:54:32.991Z,66.42
2018-07-20T06:57:01.477Z,65.99
2018-07-20T06:59:30.043Z,65.74
2018-07-20T07:01:58.520Z,65.43
2018-07-20T07:04:27.006Z,65.18
2018-07-20T07:06:55.490Z,64.87
2018-07-20T07:09:24.115Z,64.55
2018-07-20T07:11:52.553Z,63.81
2018-07-20T07:14:21.091Z,63.62
2018-07-20T07:16:49.559Z,63.38
2018-07-20T07:19:18.836Z,63.71
2018-07-20T07:21:47.414Z,62.74
2018-07-20T07:24:15.961Z,62.69
2018-07-20T07:26:44.484Z,62.78
2018-07-20T07:29:12.926Z,62.82
2018-07-20T07:31:41.711Z,62.67
2018-07-20T07:34:10.242Z,62.59
2018-07-20T07:36:38.813Z,62.60
2018-07-20T07:39:10.665Z,62.27
2018-07-20T07:41:39.161Z,61.79
2018-07-20T07:44:07.644Z,60.82
2018-07-20T07:46:36.217Z,59.86
2018-07-20T07:49:05.509Z,60.16
2018-07-20T07:51:34.096Z,59.48
2018-07-20T07:54:02.574Z,59.20
2018-07-20T07:56:31.172Z,58.44
2018-07-20T07:58:59.745Z,58.45
2018-07-20T08:01:28.226Z,57.56
2018-07-20T08:03:56.818Z,57.12
2018-07-20T08:06:25.303Z,56.32
2018-07-20T08:08:53.781Z,54.34
2018-07-20T08:11:22.212Z,54.09
2018-07-20T08:13:50.752Z,53.29
2018-07-20T08:16:19.326Z,52.95
2018-07-20T08:18:47.805Z,53.54
2018-07-20T08:21:16.409Z,54.52
2018-07-20T08:23:44.984Z,53.96
2018-07-20T08:26:13.572Z,54.15
2018-07-20T08:28:42.041Z,53.42
2018-07-20T08:31:10.636Z,52.29
2018-07-20T08:33:39.880Z,51.69
2018-07-20T08:36:08.332Z,49.54
2018-07-20T08:38:36.836Z,48.60
2018-07-20T08:41:05.432Z,48.59
2018-07-20T08:43:33.961Z,47.82
2018-07-20T08:46:02.437Z,47.72
2018-07-20T08:48:30.924Z,47.91
2018-07-20T08:50:59.392Z,46.81
2018-07-20T08:53:27.857Z,45.65
2018-07-20T08:55:56.584Z,45.49
2018-07-20T08:58:25.264Z,44.94
2018-07-20T09:00:53.778Z,45.67
2018-07-20T09:03:22.356Z,45.88
2018-07-20T09:05:50.915Z,44.91
2018-07-20T09:08:19.405Z,44.02
2018-07-20T09:10:47.977Z,43.18
2018-07-20T09:13:16.443Z,43.40
2018-07-20T09:15:44.926Z,43.02
2018-07-20T09:18:13.512Z,42.04
2018-07-20T09:20:42.083Z,41.38
2018-07-20T09:23:10.787Z,40.30
2018-07-20T09:25:39.311Z,41.45
2018-07-20T09:28:08.063Z,42.31
2018-07-20T09:30:36.593Z,41.62
2018-07-20T09:33:05.116Z,38.72
2018-07-20T09:35:33.642Z,37.89
2018-07-20T09:38:02.203Z,36.78
2018-07-20T09:40:30.810Z,36.86
2018-07-20T09:42:59.270Z,37.15
2018-07-20T09:45:27.694Z,37.06
2018-07-20T09:47:56.229Z,35.98
2018-07-20T09:50:24.723Z,36.43
2018-07-20T09:52:53.165Z,35.38
2018-07-20T09:55:21.642Z,35.29
2018-07-20T09:57:50.126Z,35.78
2018-07-20T10:01:21.629Z,35.39
2018-07-20T10:03:50.199Z,34.76
2018-07-20T10:06:18.633Z,34.14
2018-07-20T10:08:47.151Z,34.56
2018-07-20T10:11:15.745Z,33.73
2018-07-20T10:13:44.314Z,32.83
2018-07-20T10:16:12.789Z,32.50
2018-07-20T10:18:42.413Z,32.92
2018-07-20T10:21:10.925Z,32.96
2018-07-20T10:23:39.460Z,31.39
2018-07-20T10:26:08.873Z,31.24
2018-07-20T10:28:37.363Z,30.89
2018-07-20T10:31:05.834Z,31.15
2018-07-20T10:33:34.352Z,31.24
2018-07-20T10:36:02.891Z,31.13
2018-07-20T10:38:31.475Z,30.10
2018-07-20T10:41:01.005Z,28.70
2018-07-20T10:43:29.566Z,28.35
2018-07-20T10:45:58.104Z,28.25
2018-07-20T10:48:26.663Z,28.12
2018-07-20T10:50:55.321Z,27.83
2018-07-20T10:53:23.812Z,28.40
2018-07-20T10:55:52.281Z,28.27
2018-07-20T10:58:20.758Z,27.80
2018-07-20T11:00:49.197Z,26.74
2018-07-20T11:03:17.746Z,26.92
2018-07-20T11:05:46.312Z,26.96
2018-07-20T11:08:14.794Z,26.29
2018-07-20T11:10:43.370Z,26.72
2018-07-20T11:13:11.828Z,26.78
2018-07-20T11:15:40.459Z,27.30
2018-07-20T11:18:08.913Z,27.76
2018-07-20T11:20:37.361Z,27.37
2018-07-20T11:23:05.914Z,27.07
2018-07-20T11:25:34.474Z,26.50
2018-07-20T11:28:10.837Z,28.43
2018-07-20T11:30:39.327Z,28.45
2018-07-20T11:33:07.825Z,26.87
2018-07-20T11:35:36.388Z,27.36
2018-07-20T11:38:04.868Z,26.30
2018-07-20T11:40:33.326Z,26.16
2018-07-20T11:43:01.916Z,25.65
2018-07-20T11:45:30.413Z,25.97
2018-07-20T11:47:58.869Z,25.49
2018-07-20T11:50:28.084Z,23.57
2018-07-20T11:52:56.571Z,23.47
2018-07-20T11:55:25.025Z,23.05
2018-07-20T11:57:53.526Z,22.00
2018-07-20T12:00:21.994Z,20.86
2018-07-20T12:02:50.696Z,20.76
2018-07-20T12:05:19.200Z,20.22
2018-07-20T12:07:47.865Z,19.26
2018-07-20T12:10:16.409Z,19.18
2018-07-20T12:12:44.933Z,18.60
2018-07-20T12:15:13.389Z,18.12
2018-07-20T12:17:41.857Z,16.95
2018-07-20T12:20:10.576Z,17.08
2018-07-20T12:22:39.014Z,17.69
2018-07-20T12:25:07.581Z,17.43
2018-07-20T12:27:36.221Z,18.01
2018-07-20T12:30:05.222Z,16.68
2018-07-20T12:32:33.795Z,17.61
2018-07-20T12:35:02.327Z,17.43
2018-07-20T12:37:30.872Z,17.71
2018-07-20T12:39:59.346Z,17.69
2018-07-20T12:42:27.938Z,16.78
2018-07-20T12:44:56.508Z,17.68
2018-07-20T12:47:25.006Z,17.72
2018-07-20T12:49:53.687Z,17.38
2018-07-20T12:53:13.126Z,17.00
2018-07-20T12:55:41.661Z,16.94
2018-07-20T12:58:10.228Z,17.67
2018-07-20T13:00:38.709Z,17.42
2018-07-20T13:03:07.172Z,17.91
2018-07-20T13:05:35.724Z,18.07
2018-07-20T13:08:13.121Z,19.10
2018-07-20T13:10:41.651Z,18.50
2018-07-20T13:13:10.122Z,19.18
2018-07-20T13:15:38.684Z,18.68
2018-07-20T13:18:07.266Z,18.60
2018-07-20T13:20:35.873Z,19.08
2018-07-20T13:23:04.359Z,18.79
2018-07-20T13:25:32.837Z,18.54
2018-07-20T13:28:01.446Z,19.54
2018-07-20T13:30:29.994Z,18.78
2018-07-20T13:32:58.473Z,18.87
2018-07-20T13:35:27.223Z,18.72
2018-07-20T13:37:56.462Z,18.90
2018-07-20T13:40:24.953Z,19.13
2018-07-20T13:42:53.569Z,18.50
2018-07-20T13:45:22.020Z,18.69
2018-07-20T13:47:50.516Z,19.53
2018-07-20T13:50:18.980Z,19.23
2018-07-20T13:52:47.496Z,18.98
2018-07-20T13:55:15.982Z,18.70
2018-07-20T13:57:44.525Z,18.81
2018-07-20T14:00:13.013Z,18.48
2018-07-20T14:02:41.598Z,17.70
2018-07-20T14:05:10.080Z,17.45
2018-07-20T14:07:38.548Z,18.34
2018-07-20T14:10:07.009Z,18.36
2018-07-20T14:12:35.490Z,18.34
2018-07-20T14:15:04.048Z,18.61
2018-07-20T14:17:32.582Z,18.30
2018-07-20T14:20:01.027Z,18.75
2018-07-20T14:22:29.544Z,19.28
2018-07-20T14:24:58.055Z,19.40
2018-07-20T14:27:26.600Z,19.97
2018-07-20T14:29:55.056Z,19.97
2018-07-20T14:32:23.539Z,20.35
2018-07-20T14:34:56.345Z,20.22
2018-07-20T14:37:24.844Z,20.02
2018-07-20T14:39:53.445Z,19.64
2018-07-20T14:42:21.898Z,19.95
2018-07-20T14:44:50.381Z,20.18
2018-07-20T14:47:19.023Z,20.81
2018-07-20T14:49:47.595Z,21.18
2018-07-20T14:52:16.101Z,20.98
2018-07-20T14:55:03.361Z,21.23
2018-07-20T14:57:31.957Z,21.30
2018-07-20T15:00:00.517Z,21.58
2018-07-20T15:02:29.007Z,21.84
2018-07-20T15:04:57.717Z,22.02
2018-07-20T15:07:26.285Z,22.00
2018-07-20T15:09:54.761Z,21.80
2018-07-20T15:12:23.324Z,22.30
2018-07-20T15:14:51.803Z,22.49
2018-07-20T15:17:20.297Z,22.29
2018-07-20T15:19:48.736Z,22.75
2018-07-20T15:22:17.262Z,22.66
2018-07-20T15:24:45.897Z,22.74
2018-07-20T15:27:14.633Z,22.62
2018-07-20T15:29:43.305Z,22.77
2018-07-20T15:32:12.003Z,22.64
2018-07-20T15:34:40.473Z,23.17
2018-07-20T15:37:09.055Z,22.82
2018-07-20T15:39:37.544Z,23.15
2018-07-20T15:42:06.044Z,23.25
2018-07-20T15:44:34.632Z,23.32
2018-07-20T15:47:03.293Z,23.19
2018-07-20T15:49:31.792Z,23.80
2018-07-20T15:54:28.958Z,23.14
2018-07-20T15:56:57.468Z,23.66
2018-07-20T15:59:26.003Z,23.32
2018-07-20T16:01:54.470Z,24.21
2018-07-20T16:04:23.014Z,23.87
2018-07-20T16:06:51.647Z,24.73
2018-07-20T16:09:20.241Z,24.91
2018-07-20T16:11:48.724Z,24.72
2018-07-20T16:14:17.210Z,24.04
2018-07-20T16:16:45.664Z,23.48
2018-07-20T16:19:14.168Z,24.11
2018-07-20T16:21:42.805Z,24.78
2018-07-20T16:24:11.328Z,24.99
2018-07-20T16:26:39.820Z,25.83
2018-07-20T16:29:08.413Z,26.69
2018-07-20T16:31:36.876Z,27.35
2018-07-20T16:34:05.377Z,27.06
2018-07-20T16:36:33.872Z,27.31
2018-07-20T16:39:02.493Z,28.26
2018-07-20T16:41:31.000Z,29.14
2018-07-20T16:43:59.447Z,29.45
2018-07-20T16:46:28.024Z,30.42
2018-07-20T16:48:56.554Z,30.87
2018-07-20T16:51:25.182Z,30.89
2018-07-20T16:53:53.621Z,30.71
2018-07-20T16:56:22.075Z,31.21
2018-07-20T16:58:50.561Z,32.13
2018-07-20T17:01:19.020Z,32.08
2018-07-20T17:03:47.452Z,31.61
2018-07-20T17:06:16.043Z,31.58
2018-07-20T17:08:44.601Z,32.11
2018-07-20T17:11:13.056Z,31.39
2018-07-20T17:13:41.549Z,30.90
2018-07-20T17:16:10.076Z,31.01
2018-07-20T17:18:39.136Z,30.79
2018-07-20T17:21:07.744Z,30.46
2018-07-20T17:23:37.244Z,30.44
2018-07-20T17:26:06.137Z,31.28
2018-07-20T17:28:34.789Z,30.21
2018-07-20T17:31:03.305Z,31.06
2018-07-20T17:33:31.983Z,30.89
2018-07-20T17:36:00.419Z,31.09
2018-07-20T17:45:19.203Z,32.40
2018-07-20T17:47:47.668Z,31.74
2018-07-20T17:50:16.136Z,31.88
2018-07-20T17:52:44.607Z,32.70
2018-07-20T17:55:17.122Z,33.24
2018-07-20T17:57:45.670Z,33.77
2018-07-20T18:00:14.354Z,33.73
2018-07-20T18:02:42.847Z,34.22
2018-07-20T18:05:11.436Z,34.42
2018-07-20T18:07:39.862Z,34.53
2018-07-20T18:10:08.393Z,34.36
2018-07-20T18:12:36.973Z,35.03
2018-07-20T18:15:06.283Z,34.50
2018-07-20T18:17:34.797Z,34.55
2018-07-20T18:20:03.286Z,34.47
2018-07-20T18:22:31.848Z,34.87
2018-07-20T18:25:00.293Z,36.25
2018-07-20T18:27:28.895Z,35.96
2018-07-20T18:29:57.514Z,36.06
2018-07-20T18:32:28.812Z,35.49
2018-07-20T18:34:57.301Z,35.97
2018-07-20T18:37:25.881Z,36.47
2018-07-20T18:39:54.407Z,36.60
2018-07-20T18:42:23.268Z,35.99
2018-07-20T18:44:51.720Z,36.22
2018-07-20T18:47:20.263Z,36.86
2018-07-20T18:49:48.809Z,36.56
2018-07-20T18:52:17.480Z,36.93
2018-07-20T18:54:45.949Z,36.58
2018-07-20T18:57:15.574Z,36.69
2018-07-20T18:59:44.126Z,37.05
2018-07-20T19:02:12.641Z,37.08
2018-07-20T19:04:41.222Z,36.91
2018-07-20T19:07:09.674Z,36.90
2018-07-20T19:09:38.190Z,36.84
2018-07-20T19:12:06.674Z,37.03
2018-07-20T19:14:35.295Z,37.50
2018-07-20T19:17:11.672Z,37.45
2018-07-20T19:19:48.703Z,37.40
2018-07-20T19:22:22.718Z,37.82
2018-07-20T19:24:51.566Z,37.84
2018-07-20T19:27:24.534Z,37.88
2018-07-20T19:29:53.067Z,38.08
2018-07-20T19:32:21.559Z,38.59
2018-07-20T19:34:50.333Z,39.02
2018-07-20T19:37:18.921Z,38.93
2018-07-20T19:39:47.516Z,38.89
2018-07-20T19:42:16.009Z,39.30
2018-07-20T19:44:44.502Z,39.71
2018-07-20T19:47:12.963Z,39.66
2018-07-20T19:49:41.721Z,39.52
2018-07-20T19:52:10.445Z,40.32
2018-07-20T19:54:39.020Z,39.29
2018-07-20T19:57:07.934Z,39.28
2018-07-20T19:59:36.637Z,38.54
2018-07-20T20:02:05.271Z,38.62
2018-07-20T20:04:33.737Z,38.87
2018-07-20T20:07:03.407Z,39.04
2018-07-20T20:09:31.866Z,38.94
2018-07-20T20:12:01.552Z,38.75
2018-07-20T20:14:30.062Z,39.07
2018-07-20T20:16:58.622Z,38.33
2018-07-20T20:19:27.161Z,38.40
2018-07-20T20:21:55.621Z,38.00
2018-07-20T20:24:24.202Z,37.90
2018-07-20T20:26:52.795Z,38.05
2018-07-20T20:29:21.348Z,38.65
2018-07-20T20:31:49.941Z,38.56
2018-07-20T20:34:18.424Z,38.59
2018-07-20T20:36:46.920Z,38.59
2018-07-20T20:39:15.487Z,37.89
2018-07-20T20:41:43.981Z,38.61
2018-07-20T20:44:12.518Z,38.29
2018-07-20T20:46:41.337Z,37.72
2018-07-20T20:49:09.932Z,38.04
2018-07-20T20:51:38.544Z,38.23
2018-07-20T20:54:07.754Z,39.04
2018-07-20T20:56:36.321Z,41.09
2018-07-20T20:59:05.040Z,44.05
2018-07-20T21:01:33.592Z,46.12
2018-07-20T21:04:02.041Z,46.25
2018-07-20T21:06:30.629Z,45.97
2018-07-20T21:08:59.132Z,45.69
2018-07-20T21:11:27.674Z,48.00
2018-07-20T21:13:56.222Z,49.29
2018-07-20T21:16:24.792Z,49.26
2018-07-20T21:18:53.341Z,50.78
2018-07-20T21:21:21.821Z,51.66
2018-07-20T21:23:50.421Z,51.71
2018-07-20T21:26:19.086Z,53.14
2018-07-20T21:28:47.663Z,54.65
2018-07-20T21:31:16.122Z,56.65
2018-07-20T21:33:44.646Z,57.57
2018-07-20T21:36:13.224Z,57.60
2018-07-20T21:38:42.052Z,57.58
2018-07-20T21:41:10.537Z,57.38
2018-07-20T21:43:39.163Z,57.60
2018-07-20T21:46:07.865Z,56.94
2018-07-20T21:48:36.477Z,54.64
2018-07-20T21:51:05.027Z,53.22
2018-07-20T21:53:33.600Z,52.27
2018-07-20T21:56:02.084Z,51.91
2018-07-20T21:58:30.583Z,51.85
2018-07-20T22:00:59.361Z,51.79
2018-07-20T22:03:27.953Z,52.19
2018-07-20T22:05:56.391Z,53.13
2018-07-20T22:08:25.000Z,53.09
2018-07-20T22:10:53.544Z,53.58
2018-07-20T22:13:22.098Z,53.66
2018-07-20T22:15:50.704Z,54.04
2018-07-20T22:18:19.174Z,54.68
2018-07-20T22:20:47.834Z,54.81
2018-07-20T22:23:16.514Z,57.69
2018-07-20T22:25:45.133Z,58.40
2018-07-20T22:28:34.476Z,59.17
2018-07-20T22:31:03.084Z,59.12
2018-07-20T22:33:31.660Z,57.58
2018-07-20T22:36:00.137Z,56.42
2018-07-20T22:38:28.605Z,56.48
2018-07-20T22:40:57.202Z,57.79
2018-07-20T22:43:25.772Z,57.99
2018-07-20T22:45:54.214Z,58.53
2018-07-20T22:48:22.780Z,57.53
2018-07-20T22:50:51.335Z,56.96
2018-07-20T22:53:19.942Z,56.75
2018-07-20T22:55:48.495Z,57.38
2018-07-20T22:58:17.021Z,58.17
2018-07-20T23:01:07.055Z,58.23
2018-07-20T23:03:35.574Z,58.24
2018-07-20T23:06:04.114Z,59.40
2018-07-20T23:08:32.590Z,62.66
2018-07-20T23:11:01.089Z,64.62
2018-07-20T23:13:29.566Z,67.32
2018-07-20T23:15:58.246Z,69.67
2018-07-20T23:18:26.740Z,71.78
2018-07-20T23:20:55.280Z,71.94
2018-07-20T23:23:23.839Z,72.70
2018-07-20T23:25:52.274Z,73.03
2018-07-20T23:28:20.879Z,73.34
2018-07-20T23:30:49.457Z,73.35
2018-07-20T23:33:17.978Z,74.15
2018-07-20T23:35:46.508Z,75.32
2018-07-20T23:38:15.007Z,77.70
2018-07-20T23:40:43.488Z,77.33
2018-07-20T23:43:12.055Z,77.53
2018-07-20T23:45:40.541Z,78.02
2018-07-20T23:48:09.035Z,78.27
2018-07-20T23:50:37.816Z,78.74
2018-07-20T23:53:06.320Z,78.62
2018-07-20T23:55:34.772Z,78.31
2018-07-20T23:58:03.255Z,77.75
